sensor_id;sensor_type;location;lat;lon;timestamp;P1;durP1;ratioP1;P2;durP2;ratioP2
14019;SDS011;7085;51.428;6.796;2023-03-14T04:01:11;8.10;;;1.60;;
14019;SDS011;7085;51.428;6.796;2023-03-14T04:03:38;1.40;;;1.17;;
14019;SDS011;7085;51.428;6.796;2023-03-14T04:06:06;6.53;;;1.40;;
14019;SDS011;7085;51.428;6.796;2023-03-14T04:08:33;4.13;;;1.25;;
14019;SDS011;7085;51.428;6.796;2023-03-14T04:11:01;6.05;;;1.95;;
14019;SDS011;7085;51.428;6.796;2023-03-14T04:13:28;2.40;;;0.98;;
14019;SDS011;7085;51.428;6.796;2023-03-14T04:15:55;3.03;;;0.68;;
14019;SDS011;7085;51.428;6.796;2023-03-14T04:18:24;4.78;;;0.95;;
14019;SDS011;7085;51.428;6.796;2023-03-14T04:20:51;2.67;;;1.20;;
14019;SDS011;7085;51.428;6.796;2023-03-14T04:23:19;2.83;;;1.20;;
14019;SDS011;7085;51.428;6.796;2023-03-14T04:25:46;1.98;;;1.42;;
14019;SDS011;7085;51.428;6.796;2023-03-14T04:28:13;3.60;;;0.85;;
14019;SDS011;7085;51.428;6.796;2023-03-14T04:30:40;2.42;;;1.02;;
14019;SDS011;7085;51.428;6.796;2023-03-14T04:33:07;8.77;;;1.30;;
14019;SDS011;7085;51.428;6.796;2023-03-14T04:35:36;3.85;;;1.50;;
14019;SDS011;7085;51.428;6.796;2023-03-14T04:38:03;5.30;;;1.38;;
14019;SDS011;7085;51.428;6.796;2023-03-14T04:40:30;1.92;;;1.05;;
14019;SDS011;7085;51.428;6.796;2023-03-14T04:42:57;3.47;;;1.45;;
14019;SDS011;7085;51.428;6.796;2023-03-14T04:45:24;3.88;;;1.35;;
14019;SDS011;7085;51.428;6.796;2023-03-14T04:47:51;1.20;;;0.98;;
14019;SDS011;7085;51.428;6.796;2023-03-14T04:50:19;3.20;;;1.15;;
14019;SDS011;7085;51.428;6.796;2023-03-14T04:52:47;2.33;;;1.02;;
14019;SDS011;7085;51.428;6.796;2023-03-14T04:55:14;2.45;;;0.95;;
14019;SDS011;7085;51.428;6.796;2023-03-14T04:57:41;0.40;;;0.40;;
14019;SDS011;7085;51.428;6.796;2023-03-14T05:00:09;2.80;;;0.90;;
14019;SDS011;7085;51.428;6.796;2023-03-14T05:02:36;0.40;;;0.40;;
14019;SDS011;7085;51.428;6.796;2023-03-14T05:05:03;1.92;;;0.95;;
14019;SDS011;7085;51.428;6.796;2023-03-14T05:07:30;1.83;;;1.02;;
14019;SDS011;7085;51.428;6.796;2023-03-14T05:09:59;1.35;;;0.70;;
14019;SDS011;7085;51.428;6.796;2023-03-14T05:12:26;1.40;;;0.90;;
14019;SDS011;7085;51.428;6.796;2023-03-14T05:14:53;2.15;;;1.10;;
14019;SDS011;7085;51.428;6.796;2023-03-14T05:17:20;4.07;;;1.30;;
14019;SDS011;7085;51.428;6.796;2023-03-14T05:19:47;2.67;;;1.60;;
14019;SDS011;7085;51.428;6.796;2023-03-14T05:22:14;3.53;;;1.67;;
14019;SDS011;7085;51.428;6.796;2023-03-14T05:24:41;3.00;;;1.67;;
14019;SDS011;7085;51.428;6.796;2023-03-14T05:27:09;6.72;;;2.40;;
14019;SDS011;7085;51.428;6.796;2023-03-14T05:29:37;4.93;;;2.88;;
14019;SDS011;7085;51.428;6.796;2023-03-14T05:32:04;4.18;;;2.72;;
14019;SDS011;7085;51.428;6.796;2023-03-14T05:34:31;6.57;;;2.58;;
14019;SDS011;7085;51.428;6.796;2023-03-14T05:36:58;4.82;;;1.92;;
14019;SDS011;7085;51.428;6.796;2023-03-14T05:39:25;2.53;;;0.95;;
14019;SDS011;7085;51.428;6.796;2023-03-14T05:41:52;2.30;;;1.15;;
14019;SDS011;7085;51.428;6.796;2023-03-14T05:44:22;1.55;;;0.90;;
14019;SDS011;7085;51.428;6.796;2023-03-14T05:46:49;0.82;;;0.65;;
14019;SDS011;7085;51.428;6.796;2023-03-14T05:49:16;1.13;;;0.70;;
14019;SDS011;7085;51.428;6.796;2023-03-14T05:51:43;1.55;;;0.80;;
14019;SDS011;7085;51.428;6.796;2023-03-14T05:54:10;2.47;;;0.75;;
14019;SDS011;7085;51.428;6.796;2023-03-14T05:56:37;0.55;;;0.50;;
14019;SDS011;7085;51.428;6.796;2023-03-14T05:59:04;1.20;;;0.70;;
14019;SDS011;7085;51.428;6.796;2023-03-14T06:01:35;2.67;;;1.10;;
14019;SDS011;7085;51.428;6.796;2023-03-14T06:04:02;1.90;;;0.90;;
14019;SDS011;7085;51.428;6.796;2023-03-14T06:06:30;1.42;;;0.80;;
14019;SDS011;7085;51.428;6.796;2023-03-14T06:08:57;1.48;;;1.02;;
14019;SDS011;7085;51.428;6.796;2023-03-14T06:11:24;0.63;;;0.63;;
14019;SDS011;7085;51.428;6.796;2023-03-14T06:13:51;2.08;;;1.25;;
14019;SDS011;7085;51.428;6.796;2023-03-14T06:16:18;2.58;;;0.70;;
14019;SDS011;7085;51.428;6.796;2023-03-14T06:18:47;0.63;;;0.60;;
14019;SDS011;7085;51.428;6.796;2023-03-14T06:21:17;0.45;;;0.40;;
14019;SDS011;7085;51.428;6.796;2023-03-14T06:23:44;0.52;;;0.40;;
14019;SDS011;7085;51.428;6.796;2023-03-14T06:26:11;0.60;;;0.50;;
14019;SDS011;7085;51.428;6.796;2023-03-14T06:28:38;0.73;;;0.60;;
14019;SDS011;7085;51.428;6.796;2023-03-14T06:31:05;1.88;;;0.68;;
14019;SDS011;7085;51.428;6.796;2023-03-14T06:33:32;1.75;;;0.95;;
14019;SDS011;7085;51.428;6.796;2023-03-14T06:36:01;1.02;;;0.50;;
14019;SDS011;7085;51.428;6.796;2023-03-14T06:38:28;1.85;;;0.57;;
14019;SDS011;7085;51.428;6.796;2023-03-14T06:40:55;1.60;;;0.70;;
14019;SDS011;7085;51.428;6.796;2023-03-14T06:43:22;1.63;;;1.00;;
14019;SDS011;7085;51.428;6.796;2023-03-14T06:45:49;2.38;;;1.17;;
14019;SDS011;7085;51.428;6.796;2023-03-14T06:48:16;0.98;;;0.85;;
14019;SDS011;7085;51.428;6.796;2023-03-14T06:50:43;1.80;;;0.60;;
14019;SDS011;7085;51.428;6.796;2023-03-14T06:53:12;1.50;;;0.77;;
14019;SDS011;7085;51.428;6.796;2023-03-14T06:55:39;1.73;;;0.75;;
14019;SDS011;7085;51.428;6.796;2023-03-14T06:58:06;2.78;;;0.98;;
14019;SDS011;7085;51.428;6.796;2023-03-14T07:00:33;0.93;;;0.80;;
14019;SDS011;7085;51.428;6.796;2023-03-14T07:03:00;0.55;;;0.55;;
14019;SDS011;7085;51.428;6.796;2023-03-14T07:05:28;0.52;;;0.52;;
14019;SDS011;7085;51.428;6.796;2023-03-14T07:07:55;0.25;;;0.25;;
14019;SDS011;7085;51.428;6.796;2023-03-14T07:10:23;0.50;;;0.50;;
14019;SDS011;7085;51.428;6.796;2023-03-14T07:12:50;3.60;;;0.30;;
14019;SDS011;7085;51.428;6.796;2023-03-14T07:15:18;0.70;;;0.70;;
14019;SDS011;7085;51.428;6.796;2023-03-14T07:17:45;0.55;;;0.55;;
14019;SDS011;7085;51.428;6.796;2023-03-14T07:20:13;2.47;;;1.25;;
14019;SDS011;7085;51.428;6.796;2023-03-14T07:22:40;1.90;;;1.27;;
14019;SDS011;7085;51.428;6.796;2023-03-14T07:25:07;1.52;;;1.20;;
14019;SDS011;7085;51.428;6.796;2023-03-14T07:27:38;1.67;;;1.50;;
14019;SDS011;7085;51.428;6.796;2023-03-14T07:30:05;1.80;;;1.50;;
14019;SDS011;7085;51.428;6.796;2023-03-14T07:32:32;2.65;;;1.80;;
14019;SDS011;7085;51.428;6.796;2023-03-14T07:34:59;3.17;;;2.13;;
14019;SDS011;7085;51.428;6.796;2023-03-14T07:37:26;3.72;;;2.05;;
14019;SDS011;7085;51.428;6.796;2023-03-14T07:39:54;3.00;;;2.13;;
14019;SDS011;7085;51.428;6.796;2023-03-14T07:42:21;1.58;;;1.40;;
14019;SDS011;7085;51.428;6.796;2023-03-14T07:44:49;1.50;;;1.20;;
14019;SDS011;7085;51.428;6.796;2023-03-14T07:47:16;5.15;;;2.28;;
14019;SDS011;7085;51.428;6.796;2023-03-14T07:49:43;1.90;;;1.70;;
14019;SDS011;7085;51.428;6.796;2023-03-14T07:52:10;3.03;;;2.08;;
14019;SDS011;7085;51.428;6.796;2023-03-14T07:54:37;5.30;;;2.15;;
14019;SDS011;7085;51.428;6.796;2023-03-14T07:57:04;2.58;;;2.38;;
14019;SDS011;7085;51.428;6.796;2023-03-14T07:59:31;3.28;;;2.97;;
14019;SDS011;7085;51.428;6.796;2023-03-14T08:01:59;3.22;;;2.72;;
14019;SDS011;7085;51.428;6.796;2023-03-14T08:04:27;3.53;;;2.78;;
14019;SDS011;7085;51.428;6.796;2023-03-14T08:06:54;4.03;;;3.60;;
14019;SDS011;7085;51.428;6.796;2023-03-14T08:09:21;5.03;;;3.35;;
14019;SDS011;7085;51.428;6.796;2023-03-14T08:11:48;4.40;;;3.25;;
14019;SDS011;7085;51.428;6.796;2023-03-14T08:14:15;2.85;;;2.63;;
14019;SDS011;7085;51.428;6.796;2023-03-14T08:16:42;2.20;;;1.77;;
14019;SDS011;7085;51.428;6.796;2023-03-14T08:19:10;1.40;;;1.30;;
14019;SDS011;7085;51.428;6.796;2023-03-14T08:21:37;2.55;;;1.23;;
14019;SDS011;7085;51.428;6.796;2023-03-14T08:24:04;3.42;;;1.52;;
14019;SDS011;7085;51.428;6.796;2023-03-14T08:26:32;1.27;;;1.17;;
14019;SDS011;7085;51.428;6.796;2023-03-14T08:28:59;2.28;;;1.90;;
14019;SDS011;7085;51.428;6.796;2023-03-14T08:31:26;3.40;;;3.10;;
14019;SDS011;7085;51.428;6.796;2023-03-14T08:33:53;2.47;;;2.20;;
14019;SDS011;7085;51.428;6.796;2023-03-14T08:36:22;2.58;;;2.08;;
14019;SDS011;7085;51.428;6.796;2023-03-14T08:38:49;2.65;;;2.40;;
14019;SDS011;7085;51.428;6.796;2023-03-14T08:41:16;2.35;;;2.15;;
14019;SDS011;7085;51.428;6.796;2023-03-14T08:43:43;2.45;;;1.65;;
14019;SDS011;7085;51.428;6.796;2023-03-14T08:46:10;1.30;;;1.20;;
14019;SDS011;7085;51.428;6.796;2023-03-14T08:48:37;1.85;;;1.17;;
14019;SDS011;7085;51.428;6.796;2023-03-14T08:51:05;2.10;;;1.25;;
14019;SDS011;7085;51.428;6.796;2023-03-14T08:53:33;2.65;;;1.60;;
14019;SDS011;7085;51.428;6.796;2023-03-14T08:56:01;1.33;;;1.20;;
14019;SDS011;7085;51.428;6.796;2023-03-14T08:58:28;1.25;;;1.05;;
14019;SDS011;7085;51.428;6.796;2023-03-14T09:00:55;1.65;;;0.98;;
14019;SDS011;7085;51.428;6.796;2023-03-14T09:03:23;0.93;;;0.68;;
14019;SDS011;7085;51.428;6.796;2023-03-14T09:05:50;1.30;;;0.98;;
14019;SDS011;7085;51.428;6.796;2023-03-14T09:08:17;0.85;;;0.85;;
14019;SDS011;7085;51.428;6.796;2023-03-14T09:10:45;1.00;;;0.85;;
14019;SDS011;7085;51.428;6.796;2023-03-14T09:13:12;2.63;;;0.80;;
14019;SDS011;7085;51.428;6.796;2023-03-14T09:15:40;0.82;;;0.50;;
14019;SDS011;7085;51.428;6.796;2023-03-14T09:18:07;0.40;;;0.30;;
14019;SDS011;7085;51.428;6.796;2023-03-14T09:20:34;0.40;;;0.40;;
14019;SDS011;7085;51.428;6.796;2023-03-14T09:23:01;0.70;;;0.50;;
14019;SDS011;7085;51.428;6.796;2023-03-14T09:25:28;0.68;;;0.50;;
14019;SDS011;7085;51.428;6.796;2023-03-14T09:27:56;0.52;;;0.52;;
14019;SDS011;7085;51.428;6.796;2023-03-14T09:30:23;1.05;;;0.75;;
14019;SDS011;7085;51.428;6.796;2023-03-14T09:32:50;1.48;;;0.47;;
14019;SDS011;7085;51.428;6.796;2023-03-14T09:35:17;2.75;;;0.80;;
14019;SDS011;7085;51.428;6.796;2023-03-14T09:37:44;1.48;;;0.75;;
14019;SDS011;7085;51.428;6.796;2023-03-14T09:40:12;2.15;;;1.00;;
14019;SDS011;7085;51.428;6.796;2023-03-14T09:42:40;0.82;;;0.82;;
14019;SDS011;7085;51.428;6.796;2023-03-14T09:45:11;0.93;;;0.70;;
14019;SDS011;7085;51.428;6.796;2023-03-14T09:47:39;2.20;;;0.93;;
14019;SDS011;7085;51.428;6.796;2023-03-14T09:50:09;1.67;;;1.15;;
14019;SDS011;7085;51.428;6.796;2023-03-14T09:52:38;1.98;;;1.38;;
14019;SDS011;7085;51.428;6.796;2023-03-14T09:55:09;1.98;;;1.23;;
14019;SDS011;7085;51.428;6.796;2023-03-14T09:57:38;1.33;;;1.17;;
14019;SDS011;7085;51.428;6.796;2023-03-14T10:00:06;1.30;;;1.25;;
14019;SDS011;7085;51.428;6.796;2023-03-14T10:02:41;1.65;;;1.20;;
14019;SDS011;7085;51.428;6.796;2023-03-14T10:05:14;3.08;;;1.50;;
14019;SDS011;7085;51.428;6.796;2023-03-14T10:07:41;1.88;;;1.55;;
14019;SDS011;7085;51.428;6.796;2023-03-14T10:10:10;1.30;;;1.20;;
14019;SDS011;7085;51.428;6.796;2023-03-14T10:12:37;2.03;;;1.67;;
14019;SDS011;7085;51.428;6.796;2023-03-14T10:15:06;2.50;;;1.27;;
14019;SDS011;7085;51.428;6.796;2023-03-14T10:17:38;2.40;;;1.30;;
14019;SDS011;7085;51.428;6.796;2023-03-14T10:20:15;2.47;;;1.25;;
14019;SDS011;7085;51.428;6.796;2023-03-14T10:22:52;1.27;;;1.17;;
14019;SDS011;7085;51.428;6.796;2023-03-14T10:25:24;3.17;;;1.33;;
14019;SDS011;7085;51.428;6.796;2023-03-14T10:27:52;1.98;;;1.40;;
14019;SDS011;7085;51.428;6.796;2023-03-14T10:30:27;3.42;;;0.98;;
14019;SDS011;7085;51.428;6.796;2023-03-14T10:32:54;1.55;;;1.15;;
14019;SDS011;7085;51.428;6.796;2023-03-14T10:35:23;1.90;;;1.45;;
14019;SDS011;7085;51.428;6.796;2023-03-14T10:37:51;5.20;;;2.45;;
14019;SDS011;7085;51.428;6.796;2023-03-14T10:40:20;3.72;;;1.60;;
14019;SDS011;7085;51.428;6.796;2023-03-14T10:42:48;3.67;;;1.53;;
14019;SDS011;7085;51.428;6.796;2023-03-14T10:45:27;2.75;;;1.23;;
14019;SDS011;7085;51.428;6.796;2023-03-14T10:47:54;1.30;;;1.00;;
14019;SDS011;7085;51.428;6.796;2023-03-14T10:50:26;1.43;;;1.30;;
14019;SDS011;7085;51.428;6.796;2023-03-14T10:52:54;2.53;;;0.87;;
14019;SDS011;7085;51.428;6.796;2023-03-14T10:55:23;2.13;;;1.15;;
14019;SDS011;7085;51.428;6.796;2023-03-14T10:57:50;5.00;;;1.50;;
14019;SDS011;7085;51.428;6.796;2023-03-14T11:00:18;3.40;;;1.37;;
14019;SDS011;7085;51.428;6.796;2023-03-14T11:02:48;2.70;;;1.70;;
14019;SDS011;7085;51.428;6.796;2023-03-14T11:05:20;1.65;;;1.55;;
14019;SDS011;7085;51.428;6.796;2023-03-14T11:07:49;2.95;;;1.10;;
14019;SDS011;7085;51.428;6.796;2023-03-14T11:10:20;1.20;;;0.93;;
14019;SDS011;7085;51.428;6.796;2023-03-14T11:12:52;2.70;;;0.90;;
14019;SDS011;7085;51.428;6.796;2023-03-14T11:15:27;2.22;;;1.30;;
14019;SDS011;7085;51.428;6.796;2023-03-14T11:18:02;2.10;;;1.58;;
14019;SDS011;7085;51.428;6.796;2023-03-14T11:20:35;2.80;;;2.25;;
14019;SDS011;7085;51.428;6.796;2023-03-14T11:23:10;2.40;;;2.20;;
14019;SDS011;7085;51.428;6.796;2023-03-14T11:25:41;4.27;;;2.30;;
14019;SDS011;7085;51.428;6.796;2023-03-14T11:28:14;2.45;;;2.25;;
14019;SDS011;7085;51.428;6.796;2023-03-14T11:30:45;2.70;;;1.65;;
14019;SDS011;7085;51.428;6.796;2023-03-14T11:33:16;2.65;;;2.25;;
14019;SDS011;7085;51.428;6.796;2023-03-14T11:35:45;2.95;;;2.00;;
14019;SDS011;7085;51.428;6.796;2023-03-14T11:38:18;6.05;;;1.75;;
14019;SDS011;7085;51.428;6.796;2023-03-14T11:40:46;5.30;;;1.80;;
14019;SDS011;7085;51.428;6.796;2023-03-14T11:43:15;1.85;;;1.60;;
14019;SDS011;7085;51.428;6.796;2023-03-14T11:45:45;3.17;;;1.50;;
14019;SDS011;7085;51.428;6.796;2023-03-14T11:48:16;3.70;;;1.20;;
14019;SDS011;7085;51.428;6.796;2023-03-14T11:50:44;3.10;;;1.08;;
14019;SDS011;7085;51.428;6.796;2023-03-14T11:53:14;3.90;;;0.88;;
14019;SDS011;7085;51.428;6.796;2023-03-14T11:55:44;2.10;;;1.33;;
14019;SDS011;7085;51.428;6.796;2023-03-14T11:58:13;4.30;;;1.98;;
14019;SDS011;7085;51.428;6.796;2023-03-14T12:00:41;5.57;;;1.50;;
14019;SDS011;7085;51.428;6.796;2023-03-14T12:03:11;3.78;;;1.23;;
14019;SDS011;7085;51.428;6.796;2023-03-14T12:05:44;5.78;;;1.65;;
14019;SDS011;7085;51.428;6.796;2023-03-14T12:08:24;4.22;;;1.50;;
14019;SDS011;7085;51.428;6.796;2023-03-14T12:10:54;3.28;;;1.17;;
14019;SDS011;7085;51.428;6.796;2023-03-14T12:13:22;2.38;;;1.40;;
14019;SDS011;7085;51.428;6.796;2023-03-14T12:15:55;2.70;;;1.35;;
14019;SDS011;7085;51.428;6.796;2023-03-14T12:18:26;2.10;;;1.02;;
14019;SDS011;7085;51.428;6.796;2023-03-14T12:20:54;2.42;;;1.27;;
14019;SDS011;7085;51.428;6.796;2023-03-14T12:23:21;4.72;;;1.40;;
14019;SDS011;7085;51.428;6.796;2023-03-14T12:25:48;5.28;;;2.58;;
14019;SDS011;7085;51.428;6.796;2023-03-14T12:28:34;4.38;;;1.50;;
14019;SDS011;7085;51.428;6.796;2023-03-14T12:33:47;6.85;;;2.17;;
14019;SDS011;7085;51.428;6.796;2023-03-14T12:36:31;2.47;;;1.45;;
14019;SDS011;7085;51.428;6.796;2023-03-14T12:39:21;6.20;;;1.33;;
14019;SDS011;7085;51.428;6.796;2023-03-14T12:41:52;4.43;;;1.43;;
14019;SDS011;7085;51.428;6.796;2023-03-14T12:44:37;3.75;;;1.40;;
14019;SDS011;7085;51.428;6.796;2023-03-14T12:47:26;3.30;;;1.83;;
14019;SDS011;7085;51.428;6.796;2023-03-14T12:50:07;10.55;;;2.40;;
14019;SDS011;7085;51.428;6.796;2023-03-14T12:52:36;3.77;;;1.80;;
14019;SDS011;7085;51.428;6.796;2023-03-14T12:55:04;3.63;;;1.42;;
14019;SDS011;7085;51.428;6.796;2023-03-14T12:57:32;7.30;;;1.65;;
14019;SDS011;7085;51.428;6.796;2023-03-14T13:00:13;4.40;;;1.58;;
14019;SDS011;7085;51.428;6.796;2023-03-14T13:02:43;6.25;;;1.77;;
14019;SDS011;7085;51.428;6.796;2023-03-14T13:05:11;5.82;;;1.60;;
14019;SDS011;7085;51.428;6.796;2023-03-14T13:10:22;8.32;;;2.05;;
14019;SDS011;7085;51.428;6.796;2023-03-14T13:12:54;9.38;;;2.17;;
14019;SDS011;7085;51.428;6.796;2023-03-14T13:15:27;9.30;;;2.78;;
14019;SDS011;7085;51.428;6.796;2023-03-14T13:17:56;3.13;;;1.90;;
14019;SDS011;7085;51.428;6.796;2023-03-14T13:20:30;4.22;;;1.98;;
14019;SDS011;7085;51.428;6.796;2023-03-14T13:22:57;6.68;;;2.20;;
14019;SDS011;7085;51.428;6.796;2023-03-14T13:25:24;16.97;;;2.90;;
14019;SDS011;7085;51.428;6.796;2023-03-14T13:27:55;14.00;;;2.60;;
14019;SDS011;7085;51.428;6.796;2023-03-14T13:30:24;10.40;;;3.08;;
14019;SDS011;7085;51.428;6.796;2023-03-14T13:32:53;15.10;;;3.55;;
14019;SDS011;7085;51.428;6.796;2023-03-14T13:35:22;8.80;;;2.80;;
14019;SDS011;7085;51.428;6.796;2023-03-14T13:37:57;16.73;;;3.30;;
14019;SDS011;7085;51.428;6.796;2023-03-14T13:40:25;14.18;;;2.83;;
14019;SDS011;7085;51.428;6.796;2023-03-14T13:43:02;15.40;;;4.47;;
14019;SDS011;7085;51.428;6.796;2023-03-14T13:45:30;11.80;;;3.30;;
14019;SDS011;7085;51.428;6.796;2023-03-14T13:47:59;10.45;;;2.47;;
14019;SDS011;7085;51.428;6.796;2023-03-14T13:50:26;13.75;;;2.95;;
14019;SDS011;7085;51.428;6.796;2023-03-14T13:52:56;10.23;;;2.35;;
14019;SDS011;7085;51.428;6.796;2023-03-14T13:55:23;7.10;;;3.25;;
14019;SDS011;7085;51.428;6.796;2023-03-14T13:57:51;8.43;;;2.10;;
14019;SDS011;7085;51.428;6.796;2023-03-14T14:00:20;7.07;;;1.88;;
14019;SDS011;7085;51.428;6.796;2023-03-14T14:02:48;8.93;;;2.53;;
14019;SDS011;7085;51.428;6.796;2023-03-14T14:05:18;8.02;;;2.67;;
14019;SDS011;7085;51.428;6.796;2023-03-14T14:07:45;10.90;;;2.67;;
14019;SDS011;7085;51.428;6.796;2023-03-14T14:10:12;11.80;;;2.40;;
14019;SDS011;7085;51.428;6.796;2023-03-14T14:12:41;13.43;;;2.05;;
14019;SDS011;7085;51.428;6.796;2023-03-14T14:15:11;7.57;;;2.22;;
14019;SDS011;7085;51.428;6.796;2023-03-14T14:17:41;7.75;;;1.67;;
14019;SDS011;7085;51.428;6.796;2023-03-14T14:20:12;6.65;;;2.03;;
14019;SDS011;7085;51.428;6.796;2023-03-14T14:22:42;4.28;;;1.30;;
14019;SDS011;7085;51.428;6.796;2023-03-14T14:25:12;6.75;;;2.03;;
14019;SDS011;7085;51.428;6.796;2023-03-14T14:27:41;3.88;;;2.08;;
14019;SDS011;7085;51.428;6.796;2023-03-14T14:30:24;7.30;;;1.83;;
14019;SDS011;7085;51.428;6.796;2023-03-14T14:32:52;5.30;;;2.17;;
14019;SDS011;7085;51.428;6.796;2023-03-14T14:35:22;5.90;;;1.63;;
14019;SDS011;7085;51.428;6.796;2023-03-14T14:37:50;9.35;;;1.88;;
14019;SDS011;7085;51.428;6.796;2023-03-14T14:40:18;9.95;;;1.40;;
14019;SDS011;7085;51.428;6.796;2023-03-14T14:42:47;5.85;;;1.20;;
14019;SDS011;7085;51.428;6.796;2023-03-14T14:45:16;4.78;;;2.05;;
14019;SDS011;7085;51.428;6.796;2023-03-14T14:47:50;6.25;;;1.40;;
14019;SDS011;7085;51.428;6.796;2023-03-14T14:50:21;4.47;;;1.80;;
14019;SDS011;7085;51.428;6.796;2023-03-14T14:52:57;5.22;;;1.50;;
14019;SDS011;7085;51.428;6.796;2023-03-14T14:55:28;3.83;;;1.35;;
14019;SDS011;7085;51.428;6.796;2023-03-14T14:57:55;9.20;;;1.70;;
14019;SDS011;7085;51.428;6.796;2023-03-14T15:00:23;5.82;;;1.70;;
14019;SDS011;7085;51.428;6.796;2023-03-14T15:02:50;4.03;;;1.73;;
14019;SDS011;7085;51.428;6.796;2023-03-14T15:05:18;5.65;;;1.35;;
14019;SDS011;7085;51.428;6.796;2023-03-14T15:07:46;3.42;;;0.85;;
14019;SDS011;7085;51.428;6.796;2023-03-14T15:10:15;4.15;;;1.50;;
14019;SDS011;7085;51.428;6.796;2023-03-14T15:12:43;3.40;;;1.20;;
14019;SDS011;7085;51.428;6.796;2023-03-14T15:15:10;3.35;;;1.13;;
14019;SDS011;7085;51.428;6.796;2023-03-14T15:17:38;3.63;;;1.20;;
14019;SDS011;7085;51.428;6.796;2023-03-14T15:20:05;9.38;;;2.47;;
14019;SDS011;7085;51.428;6.796;2023-03-14T15:22:33;6.00;;;1.50;;
14019;SDS011;7085;51.428;6.796;2023-03-14T15:25:00;2.83;;;1.38;;
14019;SDS011;7085;51.428;6.796;2023-03-14T15:27:29;7.85;;;1.58;;
14019;SDS011;7085;51.428;6.796;2023-03-14T15:29:57;7.47;;;1.52;;
14019;SDS011;7085;51.428;6.796;2023-03-14T15:32:25;6.65;;;1.40;;
14019;SDS011;7085;51.428;6.796;2023-03-14T15:34:53;3.60;;;0.95;;
14019;SDS011;7085;51.428;6.796;2023-03-14T15:37:20;3.70;;;1.30;;
14019;SDS011;7085;51.428;6.796;2023-03-14T15:39:47;8.45;;;1.60;;
14019;SDS011;7085;51.428;6.796;2023-03-14T15:42:15;5.00;;;1.30;;
14019;SDS011;7085;51.428;6.796;2023-03-14T15:44:43;2.17;;;1.02;;
14019;SDS011;7085;51.428;6.796;2023-03-14T15:47:10;4.60;;;1.30;;
14019;SDS011;7085;51.428;6.796;2023-03-14T15:49:37;4.00;;;1.52;;
14019;SDS011;7085;51.428;6.796;2023-03-14T15:52:04;3.88;;;1.85;;
14019;SDS011;7085;51.428;6.796;2023-03-14T15:54:32;5.78;;;1.88;;
14019;SDS011;7085;51.428;6.796;2023-03-14T15:56:59;2.95;;;1.67;;
14019;SDS011;7085;51.428;6.796;2023-03-14T15:59:26;4.50;;;1.67;;
14019;SDS011;7085;51.428;6.796;2023-03-14T16:01:55;4.13;;;1.65;;
14019;SDS011;7085;51.428;6.796;2023-03-14T16:04:22;8.35;;;1.40;;
14019;SDS011;7085;51.428;6.796;2023-03-14T16:06:49;7.82;;;1.95;;
14019;SDS011;7085;51.428;6.796;2023-03-14T16:09:16;5.65;;;1.60;;
14019;SDS011;7085;51.428;6.796;2023-03-14T16:11:43;4.75;;;1.45;;
14019;SDS011;7085;51.428;6.796;2023-03-14T16:14:11;3.08;;;1.70;;
14019;SDS011;7085;51.428;6.796;2023-03-14T16:16:38;4.07;;;1.50;;
14019;SDS011;7085;51.428;6.796;2023-03-14T16:19:07;7.28;;;2.03;;
14019;SDS011;7085;51.428;6.796;2023-03-14T16:21:34;2.10;;;1.05;;
14019;SDS011;7085;51.428;6.796;2023-03-14T16:24:02;10.88;;;1.77;;
14019;SDS011;7085;51.428;6.796;2023-03-14T16:26:31;5.22;;;1.45;;
14019;SDS011;7085;51.428;6.796;2023-03-14T16:28:59;6.27;;;1.60;;
14019;SDS011;7085;51.428;6.796;2023-03-14T16:31:26;6.32;;;1.50;;
14019;SDS011;7085;51.428;6.796;2023-03-14T16:33:53;5.40;;;1.90;;
14019;SDS011;7085;51.428;6.796;2023-03-14T16:36:22;4.00;;;1.53;;
14019;SDS011;7085;51.428;6.796;2023-03-14T16:38:49;4.32;;;1.42;;
14019;SDS011;7085;51.428;6.796;2023-03-14T16:41:16;3.40;;;1.75;;
14019;SDS011;7085;51.428;6.796;2023-03-14T16:43:43;3.73;;;1.47;;
14019;SDS011;7085;51.428;6.796;2023-03-14T16:46:11;3.90;;;1.60;;
14019;SDS011;7085;51.428;6.796;2023-03-14T16:48:40;4.07;;;1.87;;
14019;SDS011;7085;51.428;6.796;2023-03-14T16:51:07;4.93;;;1.80;;
14019;SDS011;7085;51.428;6.796;2023-03-14T16:53:36;4.93;;;1.70;;
14019;SDS011;7085;51.428;6.796;2023-03-14T16:56:03;3.25;;;1.45;;
14019;SDS011;7085;51.428;6.796;2023-03-14T16:58:30;5.05;;;1.50;;
14019;SDS011;7085;51.428;6.796;2023-03-14T17:00:57;14.25;;;2.50;;
14019;SDS011;7085;51.428;6.796;2023-03-14T17:03:33;5.10;;;1.58;;
14019;SDS011;7085;51.428;6.796;2023-03-14T17:06:00;5.17;;;1.70;;
14019;SDS011;7085;51.428;6.796;2023-03-14T17:08:28;7.57;;;1.97;;
14019;SDS011;7085;51.428;6.796;2023-03-14T17:10:57;5.37;;;1.80;;
14019;SDS011;7085;51.428;6.796;2023-03-14T17:13:24;8.53;;;2.43;;
14019;SDS011;7085;51.428;6.796;2023-03-14T17:15:52;6.13;;;2.37;;
14019;SDS011;7085;51.428;6.796;2023-03-14T17:18:19;5.32;;;1.80;;
14019;SDS011;7085;51.428;6.796;2023-03-14T17:20:46;8.23;;;1.80;;
14019;SDS011;7085;51.428;6.796;2023-03-14T17:23:13;8.00;;;1.80;;
14019;SDS011;7085;51.428;6.796;2023-03-14T17:25:40;6.00;;;1.47;;
14019;SDS011;7085;51.428;6.796;2023-03-14T17:28:09;7.50;;;1.70;;
14019;SDS011;7085;51.428;6.796;2023-03-14T17:30:36;6.27;;;1.70;;
14019;SDS011;7085;51.428;6.796;2023-03-14T17:33:03;8.47;;;2.10;;
14019;SDS011;7085;51.428;6.796;2023-03-14T17:35:30;2.20;;;1.40;;
14019;SDS011;7085;51.428;6.796;2023-03-14T17:37:58;5.77;;;1.90;;
14019;SDS011;7085;51.428;6.796;2023-03-14T17:40:25;7.43;;;2.23;;
14019;SDS011;7085;51.428;6.796;2023-03-14T17:42:52;11.63;;;2.03;;
14019;SDS011;7085;51.428;6.796;2023-03-14T17:45:20;5.23;;;1.73;;
14019;SDS011;7085;51.428;6.796;2023-03-14T17:47:47;4.67;;;1.63;;
14019;SDS011;7085;51.428;6.796;2023-03-14T17:50:14;7.65;;;1.40;;
14019;SDS011;7085;51.428;6.796;2023-03-14T17:52:42;6.47;;;3.30;;
14019;SDS011;7085;51.428;6.796;2023-03-14T17:55:09;2.13;;;1.30;;
14019;SDS011;7085;51.428;6.796;2023-03-14T17:57:36;5.50;;;1.70;;
14019;SDS011;7085;51.428;6.796;2023-03-14T18:00:07;3.67;;;1.27;;
14019;SDS011;7085;51.428;6.796;2023-03-14T18:02:37;6.20;;;1.50;;
14019;SDS011;7085;51.428;6.796;2023-03-14T18:05:05;8.37;;;1.67;;
14019;SDS011;7085;51.428;6.796;2023-03-14T18:07:32;8.87;;;1.80;;
14019;SDS011;7085;51.428;6.796;2023-03-14T18:09:59;5.90;;;1.67;;
14019;SDS011;7085;51.428;6.796;2023-03-14T18:12:26;4.63;;;1.93;;
14019;SDS011;7085;51.428;6.796;2023-03-14T18:14:53;4.03;;;1.47;;
14019;SDS011;7085;51.428;6.796;2023-03-14T18:17:20;1.37;;;0.80;;
14019;SDS011;7085;51.428;6.796;2023-03-14T18:19:49;8.00;;;1.60;;
14019;SDS011;7085;51.428;6.796;2023-03-14T18:22:16;7.20;;;1.83;;
14019;SDS011;7085;51.428;6.796;2023-03-14T18:24:43;6.90;;;2.13;;
14019;SDS011;7085;51.428;6.796;2023-03-14T18:27:10;7.83;;;1.70;;
14019;SDS011;7085;51.428;6.796;2023-03-14T18:29:38;4.77;;;1.50;;
14019;SDS011;7085;51.428;6.796;2023-03-14T18:32:06;8.30;;;1.60;;
14019;SDS011;7085;51.428;6.796;2023-03-14T18:34:33;5.28;;;1.23;;
14019;SDS011;7085;51.428;6.796;2023-03-14T18:37:02;5.23;;;1.40;;
14019;SDS011;7085;51.428;6.796;2023-03-14T18:39:29;7.15;;;1.60;;
14019;SDS011;7085;51.428;6.796;2023-03-14T18:41:57;5.87;;;1.77;;
14019;SDS011;7085;51.428;6.796;2023-03-14T18:44:26;5.40;;;1.03;;
14019;SDS011;7085;51.428;6.796;2023-03-14T18:46:53;7.47;;;1.40;;
14019;SDS011;7085;51.428;6.796;2023-03-14T18:49:20;5.97;;;1.70;;
14019;SDS011;7085;51.428;6.796;2023-03-14T18:51:47;3.45;;;1.98;;
14019;SDS011;7085;51.428;6.796;2023-03-14T18:54:16;4.07;;;1.33;;
14019;SDS011;7085;51.428;6.796;2023-03-14T18:56:43;5.50;;;1.70;;
14019;SDS011;7085;51.428;6.796;2023-03-14T18:59:10;2.63;;;1.57;;
14019;SDS011;7085;51.428;6.796;2023-03-14T19:01:37;12.90;;;1.98;;
14019;SDS011;7085;51.428;6.796;2023-03-14T19:04:05;4.32;;;1.75;;
14019;SDS011;7085;51.428;6.796;2023-03-14T19:06:32;4.15;;;1.88;;
14019;SDS011;7085;51.428;6.796;2023-03-14T19:09:00;6.13;;;1.70;;
14019;SDS011;7085;51.428;6.796;2023-03-14T19:11:31;4.40;;;1.52;;
14019;SDS011;7085;51.428;6.796;2023-03-14T19:13:58;6.43;;;1.53;;